createdAt,value
2019-02-19T00:00:08.661Z,20.93
2019-02-19T00:02:39.153Z,21.13
2019-02-19T00:05:09.433Z,20.70
2019-02-19T00:07:39.737Z,21.47
2019-02-19T00:10:10.161Z,24.20
2019-02-19T00:12:40.772Z,22.67
2019-02-19T00:15:11.399Z,20.17
2019-02-19T00:17:42.073Z,21.30
2019-02-19T00:20:12.564Z,21.87
2019-02-19T00:22:43.109Z,20.77
2019-02-19T00:25:13.453Z,22.53
2019-02-19T00:27:43.857Z,22.90
2019-02-19T00:30:14.134Z,22.47
2019-02-19T00:32:44.621Z,22.67
2019-02-19T00:35:15.051Z,23.23
2019-02-19T00:37:45.524Z,23.30
2019-02-19T00:40:15.805Z,21.57
2019-02-19T00:42:46.314Z,21.93
2019-02-19T00:45:17.123Z,22.10
2019-02-19T00:47:47.616Z,23.30
2019-02-19T00:50:17.917Z,21.90
2019-02-19T00:52:48.333Z,21.93
2019-02-19T00:55:18.732Z,22.43
2019-02-19T00:57:48.963Z,22.97
2019-02-19T01:00:19.518Z,22.53
2019-02-19T01:02:49.820Z,22.63
2019-02-19T01:05:20.176Z,20.53
2019-02-19T01:07:50.844Z,21.77
2019-02-19T01:10:21.410Z,21.03
2019-02-19T01:12:51.910Z,21.60
2019-02-19T01:15:25.465Z,21.40
2019-02-19T01:17:54.668Z,21.27
2019-02-19T01:20:24.894Z,21.43
2019-02-19T01:22:55.197Z,21.60
2019-02-19T01:25:25.838Z,20.03
2019-02-19T01:27:56.377Z,21.10
2019-02-19T01:30:26.857Z,19.27
2019-02-19T01:32:57.533Z,19.30
2019-02-19T01:35:27.821Z,19.90
2019-02-19T01:37:58.261Z,19.60
2019-02-19T01:40:28.553Z,19.20
2019-02-19T01:42:58.845Z,21.17
2019-02-19T01:45:34.005Z,19.60
2019-02-19T01:48:01.285Z,20.53
2019-02-19T01:50:31.526Z,21.73
2019-02-19T01:53:02.099Z,19.67
2019-02-19T01:55:32.632Z,20.37
2019-02-19T01:58:02.776Z,21.80
2019-02-19T02:00:33.213Z,20.83
2019-02-19T02:03:03.681Z,19.67
2019-02-19T02:05:34.089Z,18.80
2019-02-19T02:08:04.741Z,20.67
2019-02-19T02:10:35.292Z,21.30
2019-02-19T02:13:05.532Z,20.73
2019-02-19T02:15:42.531Z,21.23
2019-02-19T02:18:08.022Z,21.17
2019-02-19T02:20:40.301Z,21.73
2019-02-19T02:23:10.673Z,21.23
2019-02-19T02:25:41.482Z,22.40
2019-02-19T02:28:12.102Z,22.10
2019-02-19T02:30:42.400Z,20.47
2019-02-19T02:33:12.965Z,21.40
2019-02-19T02:35:43.388Z,22.63
2019-02-19T02:38:13.876Z,23.43
2019-02-19T02:40:44.025Z,22.77
2019-02-19T02:43:14.446Z,23.57
2019-02-19T02:45:52.709Z,24.70
2019-02-19T02:48:16.930Z,23.40
2019-02-19T02:50:47.425Z,23.97
2019-02-19T02:53:17.815Z,22.67
2019-02-19T02:55:48.313Z,23.17
2019-02-19T02:58:18.713Z,22.07
2019-02-19T03:00:49.029Z,23.73
2019-02-19T03:03:19.601Z,26.73
2019-02-19T03:05:59.278Z,23.67
2019-02-19T03:08:29.677Z,22.43
2019-02-19T03:11:00.144Z,24.40
2019-02-19T03:13:30.462Z,25.73
2019-02-19T03:16:02.684Z,25.77
2019-02-19T03:18:33.045Z,23.13
2019-02-19T03:21:03.552Z,23.33
2019-02-19T03:23:33.851Z,24.70
2019-02-19T03:26:04.133Z,25.00
2019-02-19T03:28:34.817Z,25.47
2019-02-19T03:31:05.203Z,24.50
2019-02-19T03:33:35.602Z,27.27
2019-02-19T03:36:06.069Z,28.23
2019-02-19T03:38:36.550Z,28.40
2019-02-19T03:41:07.233Z,33.33
2019-02-19T03:43:37.786Z,27.83
2019-02-19T03:46:12.012Z,27.50
2019-02-19T03:48:40.576Z,24.73
2019-02-19T03:51:11.491Z,28.73
2019-02-19T03:53:42.021Z,26.77
2019-02-19T03:56:12.645Z,26.93
2019-02-19T03:58:43.067Z,26.60
2019-02-19T04:01:13.506Z,28.90
2019-02-19T04:03:45.526Z,25.37
2019-02-19T04:06:15.978Z,27.73
2019-02-19T04:08:46.374Z,28.47
2019-02-19T04:11:16.877Z,25.50
2019-02-19T04:13:47.377Z,25.83
2019-02-19T04:16:21.231Z,24.93
2019-02-19T04:18:49.624Z,28.80
2019-02-19T04:21:20.303Z,28.07
2019-02-19T04:23:50.958Z,26.77
2019-02-19T04:26:21.557Z,29.20
2019-02-19T04:28:51.944Z,28.90
2019-02-19T04:31:22.509Z,27.07
2019-02-19T04:33:52.985Z,26.73
2019-02-19T04:36:23.346Z,25.63
2019-02-19T04:38:53.854Z,26.50
2019-02-19T04:41:24.133Z,27.60
2019-02-19T04:43:54.630Z,28.20
2019-02-19T04:46:31.651Z,28.00
2019-02-19T04:48:56.939Z,25.60
2019-02-19T04:51:27.437Z,28.80
2019-02-19T04:53:57.928Z,26.20
2019-02-19T04:56:28.218Z,28.03
2019-02-19T04:58:58.793Z,26.70
2019-02-19T05:01:29.430Z,26.27
2019-02-19T05:03:59.934Z,25.80
2019-02-19T05:06:30.319Z,24.70
2019-02-19T05:09:00.878Z,27.53
2019-02-19T05:11:31.378Z,26.33
2019-02-19T05:14:01.959Z,27.30
2019-02-19T05:16:40.449Z,26.07
2019-02-19T05:19:04.750Z,26.83
2019-02-19T05:21:35.253Z,28.63
2019-02-19T05:24:05.890Z,27.60
2019-02-19T05:26:36.576Z,25.97
2019-02-19T05:29:06.961Z,27.83
2019-02-19T05:31:39.473Z,25.80
2019-02-19T05:34:09.885Z,24.40
2019-02-19T05:36:40.463Z,26.00
2019-02-19T05:39:11.086Z,27.83
2019-02-19T05:41:41.661Z,26.77
2019-02-19T05:44:12.151Z,27.30
2019-02-19T05:46:49.641Z,28.07
2019-02-19T05:49:14.801Z,26.37
2019-02-19T05:51:45.298Z,25.53
2019-02-19T05:54:15.521Z,26.70
2019-02-19T05:56:45.945Z,27.13
2019-02-19T05:59:16.243Z,26.77
2019-02-19T06:01:46.605Z,27.67
2019-02-19T06:04:17.081Z,25.00
2019-02-19T06:06:47.639Z,26.83
2019-02-19T06:09:18.222Z,24.50
2019-02-19T06:11:48.775Z,27.60
2019-02-19T06:14:19.387Z,26.83
2019-02-19T06:16:58.107Z,27.47
2019-02-19T06:19:22.037Z,27.57
2019-02-19T06:21:52.447Z,26.43
2019-02-19T06:24:22.897Z,26.70
2019-02-19T06:26:53.315Z,27.80
2019-02-19T06:29:23.831Z,28.73
2019-02-19T06:31:54.466Z,29.73
2019-02-19T06:34:24.868Z,31.00
2019-02-19T06:36:55.420Z,29.27
2019-02-19T06:39:25.924Z,28.63
2019-02-19T06:41:56.205Z,30.20
2019-02-19T06:44:26.711Z,28.27
2019-02-19T06:46:57.384Z,29.10
2019-02-19T06:49:27.772Z,29.53
2019-02-19T06:51:58.096Z,28.33
2019-02-19T06:54:28.585Z,29.57
2019-02-19T06:56:59.061Z,28.30
2019-02-19T06:59:29.455Z,28.90
2019-02-19T07:02:04.349Z,28.77
2019-02-19T07:04:36.289Z,28.17
2019-02-19T07:07:07.157Z,29.50
2019-02-19T07:09:37.557Z,28.93
2019-02-19T07:12:08.089Z,28.40
2019-02-19T07:14:38.476Z,27.37
2019-02-19T07:17:15.434Z,29.27
2019-02-19T07:19:41.497Z,31.67
2019-02-19T07:22:12.063Z,29.10
2019-02-19T07:24:42.554Z,30.63
2019-02-19T07:27:13.125Z,32.53
2019-02-19T07:29:43.729Z,30.97
2019-02-19T07:32:14.904Z,33.33
2019-02-19T07:34:45.388Z,31.93
2019-02-19T07:37:15.820Z,28.83
2019-02-19T07:39:46.321Z,31.03
2019-02-19T07:42:16.805Z,30.03
2019-02-19T07:44:47.469Z,28.47
2019-02-19T07:47:24.367Z,31.07
2019-02-19T07:49:50.296Z,31.43
2019-02-19T07:52:20.526Z,28.33
2019-02-19T07:54:51.395Z,30.17
2019-02-19T07:57:21.884Z,30.27
2019-02-19T07:59:52.195Z,29.30
2019-02-19T08:02:22.689Z,28.10
2019-02-19T08:04:53.127Z,29.23
2019-02-19T08:07:23.715Z,30.27
2019-02-19T08:09:54.113Z,27.93
2019-02-19T08:12:26.245Z,30.63
2019-02-19T08:14:56.881Z,29.07
2019-02-19T08:17:33.087Z,28.53
2019-02-19T08:19:59.509Z,28.13
2019-02-19T08:22:30.009Z,27.73
2019-02-19T08:25:00.436Z,29.53
2019-02-19T08:27:30.852Z,29.13
2019-02-19T08:30:01.285Z,31.37
2019-02-19T08:32:31.775Z,29.20
2019-02-19T08:35:02.374Z,29.40
2019-02-19T08:37:32.598Z,27.20
2019-02-19T08:40:03.170Z,28.57
2019-02-19T08:42:33.655Z,28.90
2019-02-19T08:45:05.233Z,28.07
2019-02-19T08:47:42.292Z,28.07
2019-02-19T08:50:08.564Z,24.67
2019-02-19T08:52:39.133Z,27.47
2019-02-19T08:55:09.821Z,26.67
2019-02-19T08:57:40.211Z,26.80
2019-02-19T09:00:11.953Z,28.17
2019-02-19T09:02:42.315Z,27.70
2019-02-19T09:05:12.998Z,27.70
2019-02-19T09:07:43.378Z,26.87
2019-02-19T09:10:14.653Z,28.87
2019-02-19T09:12:45.042Z,25.67
2019-02-19T09:15:15.529Z,25.40
2019-02-19T09:17:51.921Z,26.63
2019-02-19T09:20:18.003Z,25.97
2019-02-19T09:22:48.501Z,27.40
2019-02-19T09:25:19.169Z,26.13
2019-02-19T09:27:49.676Z,24.23
2019-02-19T09:30:20.182Z,24.90
2019-02-19T09:32:50.752Z,24.87
2019-02-19T09:35:21.037Z,24.50
2019-02-19T09:37:51.574Z,26.37
2019-02-19T09:40:22.272Z,25.03
2019-02-19T09:42:52.692Z,24.53
2019-02-19T09:45:23.266Z,23.30
2019-02-19T09:48:00.970Z,22.20
2019-02-19T09:50:25.952Z,21.90
2019-02-19T09:53:00.011Z,22.07
2019-02-19T09:55:28.493Z,22.73
2019-02-19T09:57:59.080Z,22.73
2019-02-19T10:00:29.705Z,22.20
2019-02-19T10:03:00.295Z,21.87
2019-02-19T10:05:30.649Z,23.00
2019-02-19T10:08:01.390Z,22.33
2019-02-19T10:10:31.891Z,20.47
2019-02-19T10:13:02.439Z,19.63
2019-02-19T10:15:32.937Z,19.80
2019-02-19T10:18:10.065Z,18.17
2019-02-19T10:20:35.329Z,18.33
2019-02-19T10:23:05.661Z,18.50
2019-02-19T10:25:36.150Z,17.67
2019-02-19T10:28:06.589Z,16.77
2019-02-19T10:30:37.168Z,17.77
2019-02-19T10:33:07.773Z,17.43
2019-02-19T10:35:38.258Z,17.20
2019-02-19T10:38:08.829Z,17.93
2019-02-19T10:40:39.337Z,17.73
2019-02-19T10:43:09.617Z,18.93
2019-02-19T10:45:40.133Z,18.47
2019-02-19T10:48:18.620Z,18.07
2019-02-19T10:50:42.609Z,17.07
2019-02-19T10:53:12.821Z,17.73
2019-02-19T10:55:43.193Z,17.40
2019-02-19T10:58:22.280Z,17.07
2019-02-19T11:00:45.945Z,16.70
2019-02-19T11:03:16.229Z,16.03
2019-02-19T11:05:46.721Z,16.00
2019-02-19T11:08:17.007Z,16.57
2019-02-19T11:10:47.648Z,15.43
2019-02-19T11:13:18.057Z,15.80
2019-02-19T11:15:48.487Z,15.37
2019-02-19T11:18:27.826Z,15.33
2019-02-19T11:20:51.102Z,16.40
2019-02-19T11:23:21.756Z,15.47
2019-02-19T11:25:52.341Z,15.13
2019-02-19T11:28:22.650Z,15.20
2019-02-19T11:30:53.151Z,15.57
2019-02-19T11:33:23.680Z,14.77
2019-02-19T11:35:54.847Z,15.70
2019-02-19T11:38:25.623Z,16.00
2019-02-19T11:40:55.920Z,15.23
2019-02-19T11:43:26.321Z,14.73
2019-02-19T11:45:56.554Z,15.77
2019-02-19T11:48:26.995Z,14.60
2019-02-19T11:50:57.445Z,15.43
2019-02-19T11:53:27.741Z,13.73
2019-02-19T11:55:58.149Z,15.07
2019-02-19T11:58:28.725Z,15.13
2019-02-19T12:00:59.337Z,14.07
2019-02-19T12:03:29.752Z,14.33
2019-02-19T12:06:00.062Z,14.90
2019-02-19T12:08:38.645Z,14.07
2019-02-19T12:11:02.977Z,14.53
2019-02-19T12:13:33.900Z,15.23
2019-02-19T12:16:04.304Z,14.23
2019-02-19T12:18:34.591Z,15.40
2019-02-19T12:21:05.090Z,14.80
2019-02-19T12:23:35.424Z,14.13
2019-02-19T12:26:05.805Z,15.00
2019-02-19T12:28:36.235Z,14.00
2019-02-19T12:31:06.801Z,13.73
2019-02-19T12:33:37.169Z,12.50
2019-02-19T12:36:07.985Z,14.30
2019-02-19T12:38:38.528Z,12.73
2019-02-19T12:41:09.092Z,15.07
2019-02-19T12:43:39.579Z,13.40
2019-02-19T12:46:10.081Z,13.73
2019-02-19T12:48:40.597Z,13.77
2019-02-19T12:51:11.190Z,13.30
2019-02-19T12:53:42.218Z,14.30
2019-02-19T12:56:12.605Z,12.70
2019-02-19T12:58:43.176Z,14.30
2019-02-19T13:01:13.745Z,15.53
2019-02-19T13:03:44.101Z,16.47
2019-02-19T13:06:14.309Z,15.87
2019-02-19T13:08:44.551Z,16.57
2019-02-19T13:11:14.932Z,15.90
2019-02-19T13:13:45.368Z,14.80
2019-02-19T13:16:15.681Z,17.40
2019-02-19T13:18:45.996Z,16.60
2019-02-19T13:21:16.297Z,15.53
2019-02-19T13:23:46.688Z,21.60
2019-02-19T13:26:17.157Z,14.30
2019-02-19T13:28:47.763Z,14.00
2019-02-19T13:31:18.061Z,12.27
2019-02-19T13:33:48.661Z,11.03
2019-02-19T13:36:19.392Z,11.60
2019-02-19T13:38:50.046Z,12.20
2019-02-19T13:41:20.345Z,11.80
2019-02-19T13:43:50.564Z,10.73
2019-02-19T13:46:22.156Z,11.33
2019-02-19T13:48:52.489Z,12.07
2019-02-19T13:51:23.217Z,10.90
2019-02-19T13:53:55.345Z,10.83
2019-02-19T13:56:25.860Z,10.93
2019-02-19T13:58:56.041Z,8.87
2019-02-19T14:01:34.271Z,9.07
2019-02-19T14:04:08.676Z,8.50
2019-02-19T14:06:40.638Z,8.10
2019-02-19T14:09:10.959Z,7.70
2019-02-19T14:11:41.421Z,6.43
2019-02-19T14:14:19.421Z,7.00
2019-02-19T14:16:52.149Z,6.67
2019-02-19T14:19:24.173Z,7.10
2019-02-19T14:21:56.217Z,6.60
2019-02-19T14:24:30.782Z,5.83
2019-02-19T14:27:11.825Z,7.17
2019-02-19T14:29:59.555Z,6.47
2019-02-19T14:32:31.713Z,6.63
2019-02-19T14:35:20.625Z,6.53
2019-02-19T14:37:55.240Z,6.37
2019-02-19T14:40:30.224Z,6.40
2019-02-19T14:43:07.849Z,6.70
2019-02-19T14:45:40.054Z,7.17
2019-02-19T14:48:14.854Z,7.10
2019-02-19T14:50:46.848Z,6.80
2019-02-19T14:53:21.844Z,6.83
2019-02-19T14:55:59.912Z,7.13
2019-02-19T14:58:31.821Z,7.77
2019-02-19T15:01:03.956Z,6.90
2019-02-19T15:03:38.776Z,8.73
2019-02-19T15:06:17.011Z,6.53
2019-02-19T15:08:55.093Z,7.20
2019-02-19T15:11:27.060Z,5.90
2019-02-19T15:13:59.001Z,5.90
2019-02-19T15:16:30.864Z,5.03
2019-02-19T15:19:19.895Z,6.73
2019-02-19T15:22:06.456Z,6.67
2019-02-19T15:24:47.485Z,5.73
2019-02-19T15:27:19.525Z,6.40
2019-02-19T15:29:56.865Z,5.57
2019-02-19T15:32:44.273Z,5.90
2019-02-19T15:35:27.960Z,6.13
2019-02-19T15:37:59.809Z,5.93
2019-02-19T15:40:34.743Z,5.17
2019-02-19T15:43:06.920Z,5.33
2019-02-19T15:45:47.799Z,5.40
2019-02-19T15:48:28.765Z,5.87
2019-02-19T15:51:03.446Z,5.47
2019-02-19T15:53:44.672Z,4.63
2019-02-19T15:56:29.041Z,5.73
2019-02-19T15:59:16.300Z,4.67
2019-02-19T16:01:51.255Z,4.07
2019-02-19T16:04:26.331Z,4.73
2019-02-19T16:06:58.442Z,5.50
2019-02-19T16:09:30.506Z,6.40
2019-02-19T16:12:05.873Z,5.23
2019-02-19T16:14:43.693Z,6.13
2019-02-19T16:17:32.401Z,7.27
2019-02-19T16:20:10.325Z,6.07
2019-02-19T16:22:42.461Z,6.67
2019-02-19T16:25:26.729Z,6.43
2019-02-19T16:28:04.284Z,6.80
2019-02-19T16:30:52.512Z,6.30
2019-02-19T16:33:33.113Z,5.73
2019-02-19T16:36:05.125Z,6.63
2019-02-19T16:38:53.306Z,6.67
2019-02-19T16:41:40.624Z,6.53
2019-02-19T16:44:19.030Z,5.50
2019-02-19T16:46:51.710Z,5.37
2019-02-19T16:49:40.368Z,5.57
2019-02-19T16:52:18.461Z,5.17
2019-02-19T16:54:50.589Z,5.30
2019-02-19T16:57:25.417Z,4.57
2019-02-19T16:59:59.997Z,4.80
2019-02-19T17:02:34.669Z,4.70
2019-02-19T17:05:10.957Z,4.60
2019-02-19T17:07:52.001Z,4.30
2019-02-19T17:10:39.202Z,4.63
2019-02-19T17:13:28.034Z,4.20
2019-02-19T17:16:15.160Z,4.57
2019-02-19T17:19:24.980Z,4.87
2019-02-19T17:21:57.017Z,4.60
2019-02-19T17:24:45.093Z,5.47
2019-02-19T17:27:32.973Z,3.50
2019-02-19T17:30:06.566Z,3.03
2019-02-19T17:32:41.710Z,3.40
2019-02-19T17:35:19.933Z,2.90
2019-02-19T17:37:54.993Z,3.37
2019-02-19T17:40:30.027Z,2.53
2019-02-19T17:43:11.298Z,2.60
2019-02-19T17:45:55.231Z,2.83
2019-02-19T17:48:36.188Z,2.90
2019-02-19T17:51:08.180Z,2.10
2019-02-19T17:53:56.637Z,2.93
2019-02-19T17:56:28.677Z,2.33
2019-02-19T17:59:09.662Z,2.30
2019-02-19T18:01:53.326Z,2.63
2019-02-19T18:04:25.278Z,1.80
2019-02-19T18:06:57.389Z,1.67
2019-02-19T18:09:35.212Z,2.27
2019-02-19T18:12:13.229Z,1.70
2019-02-19T18:14:45.157Z,2.60
2019-02-19T18:17:17.225Z,1.70
2019-02-19T18:19:47.861Z,1.60
2019-02-19T18:22:18.304Z,1.70
2019-02-19T18:24:48.651Z,1.80
2019-02-19T18:27:19.034Z,1.70
2019-02-19T18:29:49.465Z,1.93
2019-02-19T18:32:20.025Z,2.00
2019-02-19T18:34:50.222Z,1.80
2019-02-19T18:37:20.522Z,1.67
2019-02-19T18:39:50.894Z,1.13
2019-02-19T18:42:21.388Z,1.30
2019-02-19T18:44:51.685Z,1.20
2019-02-19T18:47:21.958Z,1.37
2019-02-19T18:49:52.314Z,1.20
2019-02-19T18:52:22.446Z,1.30
2019-02-19T18:54:52.655Z,1.10
2019-02-19T18:57:22.946Z,1.20
2019-02-19T18:59:53.435Z,1.17
2019-02-19T19:02:23.993Z,1.40
2019-02-19T19:04:54.121Z,1.20
2019-02-19T19:07:24.533Z,1.10
2019-02-19T19:09:55.013Z,1.33
2019-02-19T19:12:25.638Z,1.30
2019-02-19T19:14:56.047Z,0.93
2019-02-19T19:17:26.321Z,1.20
2019-02-19T19:19:56.721Z,1.00
2019-02-19T19:22:26.981Z,1.30
2019-02-19T19:24:57.260Z,1.00
2019-02-19T19:27:27.545Z,1.20
2019-02-19T19:29:57.757Z,1.30
2019-02-19T19:32:28.047Z,1.13
2019-02-19T19:34:58.332Z,1.73
2019-02-19T19:37:28.738Z,1.23
2019-02-19T19:39:59.357Z,1.30
2019-02-19T19:42:29.648Z,1.40
2019-02-19T19:44:59.933Z,1.37
2019-02-19T19:47:30.561Z,1.10
2019-02-19T19:50:03.199Z,1.10
2019-02-19T19:52:33.042Z,1.87
2019-02-19T19:55:03.790Z,1.43
2019-02-19T19:57:34.174Z,1.50
2019-02-19T20:00:07.825Z,1.30
2019-02-19T20:02:39.323Z,0.70
2019-02-19T20:05:10.667Z,1.57
2019-02-19T20:07:41.057Z,1.77
2019-02-19T20:10:13.378Z,1.47
2019-02-19T20:12:43.974Z,1.40
2019-02-19T20:15:14.405Z,1.30
2019-02-19T20:17:44.687Z,1.40
2019-02-19T20:20:14.908Z,1.13
2019-02-19T20:22:45.411Z,1.37
2019-02-19T20:25:15.921Z,1.60
2019-02-19T20:27:46.283Z,1.40
2019-02-19T20:30:17.141Z,1.07
2019-02-19T20:32:47.479Z,1.37
2019-02-19T20:35:17.773Z,1.00
2019-02-19T20:37:53.694Z,1.67
2019-02-19T20:40:20.221Z,1.40
2019-02-19T20:42:50.637Z,1.27
2019-02-19T20:45:20.925Z,1.33
2019-02-19T20:47:51.055Z,1.57
2019-02-19T20:50:21.645Z,1.37
2019-02-19T20:52:52.063Z,1.43
2019-02-19T20:55:22.452Z,1.97
2019-02-19T20:57:52.999Z,1.83
2019-02-19T21:00:23.466Z,1.77
2019-02-19T21:02:53.877Z,2.10
2019-02-19T21:05:24.181Z,2.10
2019-02-19T21:07:54.408Z,1.00
2019-02-19T21:10:24.914Z,2.10
2019-02-19T21:12:55.545Z,1.60
2019-02-19T21:15:25.822Z,1.33
2019-02-19T21:17:56.315Z,1.33
2019-02-19T21:20:26.788Z,1.97
2019-02-19T21:22:57.316Z,1.93
2019-02-19T21:25:31.053Z,1.47
2019-02-19T21:27:59.710Z,1.23
2019-02-19T21:30:30.114Z,1.37
2019-02-19T21:33:00.597Z,1.00
2019-02-19T21:35:30.896Z,1.57
2019-02-19T21:38:01.532Z,1.87
2019-02-19T21:40:31.997Z,1.93
2019-02-19T21:43:02.396Z,1.43
2019-02-19T21:45:32.614Z,1.60
2019-02-19T21:48:03.102Z,1.73
2019-02-19T21:50:33.565Z,1.93
2019-02-19T21:53:03.909Z,1.17
2019-02-19T21:55:34.393Z,1.30
2019-02-19T21:58:04.832Z,1.30
2019-02-19T22:00:35.041Z,1.13
2019-02-19T22:03:05.325Z,1.13
2019-02-19T22:05:35.680Z,1.87
2019-02-19T22:08:06.165Z,1.20
2019-02-19T22:10:36.569Z,1.30
2019-02-19T22:13:06.858Z,2.17
2019-02-19T22:15:37.324Z,1.43
2019-02-19T22:18:07.893Z,1.90
2019-02-19T22:20:42.917Z,1.60
2019-02-19T22:23:13.529Z,1.80
2019-02-19T22:25:43.833Z,1.53
2019-02-19T22:28:14.043Z,1.53
2019-02-19T22:30:44.324Z,1.20
2019-02-19T22:33:14.758Z,1.27
2019-02-19T22:35:45.044Z,1.50
2019-02-19T22:38:16.137Z,1.83
2019-02-19T22:40:54.820Z,1.53
2019-02-19T22:43:18.329Z,1.17
2019-02-19T22:45:48.733Z,1.30
2019-02-19T22:48:19.192Z,1.50
2019-02-19T22:50:49.557Z,1.57
2019-02-19T22:53:39.437Z,1.03
2019-02-19T22:56:11.473Z,1.77
2019-02-19T22:58:41.789Z,1.40
2019-02-19T23:01:21.773Z,1.43
2019-02-19T23:03:52.205Z,0.97
2019-02-19T23:06:22.404Z,0.97
2019-02-19T23:08:52.657Z,0.90
2019-02-19T23:11:22.928Z,1.60
2019-02-19T23:13:53.486Z,1.00
2019-02-19T23:16:23.849Z,1.13
2019-02-19T23:18:54.333Z,1.33
2019-02-19T23:21:24.621Z,1.57
2019-02-19T23:23:55.037Z,1.53
2019-02-19T23:26:25.525Z,1.93
2019-02-19T23:28:55.836Z,1.37
2019-02-19T23:31:26.465Z,1.30
2019-02-19T23:33:56.769Z,1.40
2019-02-19T23:36:34.717Z,1.80
2019-02-19T23:39:05.816Z,1.40
2019-02-19T23:41:36.026Z,1.50
2019-02-19T23:44:06.474Z,1.30
2019-02-19T23:46:37.028Z,1.30
2019-02-19T23:49:07.303Z,1.70
2019-02-19T23:51:37.713Z,1.57
2019-02-19T23:54:08.278Z,1.50
2019-02-19T23:56:38.661Z,1.67
2019-02-19T23:59:08.860Z,1.87
